Time;durP1;ratioP1;P1;durP2;ratioP2;P2;SDS_P1;SDS_P2;PMS_P1;PMS_P2;Temp;Humidity;BMP_temperature;BMP_pressure;BME280_temperature;BME280_humidity;BME280_pressure;Samples;Min_cycle;Max_cycle;Signal;HPM_P1;HPM_P2
2022/11/24 00:00:00;;;;;;;23.50;12.50;;;7.30;99.90;;;;;;4940112;28;95724;-32
2022/11/24 00:02:27;;;;;;;19.83;11.50;;;7.30;99.90;;;;;;4939313;28;94700;-32
2022/11/24 00:04:53;;;;;;;25.15;11.93;;;7.30;99.90;;;;;;4939250;28;94442;-33
2022/11/24 00:07:19;;;;;;;18.75;11.45;;;7.30;99.90;;;;;;4940165;28;94585;-32
2022/11/24 00:09:44;;;;;;;20.63;11.32;;;7.30;99.90;;;;;;4938759;28;95711;-32
2022/11/24 00:12:10;;;;;;;21.33;11.05;;;7.30;99.90;;;;;;4939783;28;94576;-34
2022/11/24 00:14:35;;;;;;;20.75;11.93;;;7.30;99.90;;;;;;4938760;28;94432;-36
2022/11/24 00:17:01;;;;;;;25.67;12.82;;;7.30;99.90;;;;;;4939292;28;93246;-32
2022/11/24 00:19:27;;;;;;;21.85;12.38;;;7.30;99.90;;;;;;4939550;28;96419;-34
2022/11/24 00:21:53;;;;;;;16.08;9.32;;;7.30;99.90;;;;;;4939690;28;94886;-33
2022/11/24 00:24:18;;;;;;;19.02;11.05;;;7.20;99.90;;;;;;4940591;28;94344;-34
2022/11/24 00:26:44;;;;;;;25.90;10.65;;;7.20;99.90;;;;;;4938142;28;92518;-33
2022/11/24 00:29:11;;;;;;;23.77;10.65;;;7.20;99.90;;;;;;4938980;28;95652;-33
2022/11/24 00:31:38;;;;;;;22.20;10.07;;;7.10;99.90;;;;;;4939429;28;97501;-33
2022/11/24 00:34:07;;;;;;;23.33;10.95;;;7.10;99.90;;;;;;4938722;28;92135;-33
2022/11/24 00:36:34;;;;;;;40.88;11.00;;;7.10;99.90;;;;;;4938722;28;94426;-33
2022/11/24 00:39:03;;;;;;;22.55;10.48;;;7.00;99.90;;;;;;4939070;28;94390;-34
2022/11/24 00:41:29;;;;;;;18.15;10.98;;;7.00;99.90;;;;;;4925269;28;94760;-32
2022/11/24 00:43:56;;;;;;;17.98;9.25;;;7.00;99.90;;;;;;4939683;28;92665;-32
2022/11/24 00:46:22;;;;;;;23.70;10.27;;;7.00;99.90;;;;;;4939183;28;91972;-33
2022/11/24 00:48:48;;;;;;;19.63;9.90;;;7.00;99.90;;;;;;4938795;28;95328;-34
2022/11/24 00:51:15;;;;;;;16.83;9.20;;;7.00;99.90;;;;;;4939602;28;94438;-32
2022/11/24 00:53:41;;;;;;;13.95;8.00;;;7.10;99.90;;;;;;4938760;28;94267;-32
2022/11/24 00:56:08;;;;;;;15.63;9.05;;;7.00;99.90;;;;;;4939974;28;93405;-35
2022/11/24 00:58:34;;;;;;;28.10;9.63;;;7.00;99.90;;;;;;4938954;28;95038;-33
2022/11/24 01:01:10;;;;;;;19.20;10.02;;;7.00;99.90;;;;;;4939213;28;94851;-33
2022/11/24 01:03:36;;;;;;;22.02;10.18;;;7.00;99.90;;;;;;4938857;28;93868;-32
2022/11/24 01:06:18;;;;;;;18.13;9.82;;;7.00;99.90;;;;;;4938456;28;93884;-33
2022/11/24 01:08:45;;;;;;;21.50;9.70;;;7.00;99.90;;;;;;4939776;28;94959;-33
2022/11/24 01:11:14;;;;;;;26.00;9.55;;;7.00;99.90;;;;;;4939504;28;94599;-32
2022/11/24 01:13:41;;;;;;;19.15;9.15;;;6.90;99.90;;;;;;4938833;28;93847;-34
2022/11/24 01:16:30;;;;;;;17.88;8.43;;;6.80;99.90;;;;;;4926278;28;92918;-33
2022/11/24 01:18:57;;;;;;;25.73;9.68;;;6.90;99.90;;;;;;4939013;28;94831;-33
2022/11/24 01:21:23;;;;;;;12.02;8.07;;;6.90;99.90;;;;;;4939369;28;95748;-34
2022/11/24 01:23:49;;;;;;;18.75;9.27;;;6.90;99.90;;;;;;4939549;28;92691;-32
2022/11/24 01:26:18;;;;;;;17.48;8.82;;;6.80;99.90;;;;;;4938768;28;93092;-32
2022/11/24 01:28:44;;;;;;;23.17;8.88;;;6.80;99.90;;;;;;4938511;28;94668;-35
2022/11/24 01:31:10;;;;;;;14.20;8.63;;;6.80;99.90;;;;;;4938773;28;94442;-33
2022/11/24 01:33:36;;;;;;;19.85;8.25;;;6.80;99.90;;;;;;4938621;28;93188;-34
2022/11/24 01:36:03;;;;;;;20.25;9.30;;;6.80;99.90;;;;;;4929978;28;93150;-35
2022/11/24 01:38:29;;;;;;;17.70;8.88;;;6.80;99.90;;;;;;4938922;28;94772;-32
2022/11/24 01:41:11;;;;;;;19.75;8.80;;;6.80;99.90;;;;;;4938367;28;94296;-33
2022/11/24 01:43:37;;;;;;;19.58;8.20;;;6.80;99.90;;;;;;4938854;28;93065;-31
2022/11/24 01:46:17;;;;;;;13.57;8.32;;;6.80;99.90;;;;;;4938303;28;92296;-31
2022/11/24 01:49:12;;;;;;;30.02;10.85;;;6.80;99.90;;;;;;4937961;28;94684;-33
2022/11/24 01:51:43;;;;;;;19.60;8.48;;;6.80;99.90;;;;;;4937471;28;94985;-34
2022/11/24 01:54:21;;;;;;;22.55;8.40;;;6.80;99.90;;;;;;4938642;28;93559;-32
2022/11/24 01:56:52;;;;;;;30.77;10.10;;;6.80;99.90;;;;;;4938513;28;93753;-33
2022/11/24 01:59:19;;;;;;;23.20;9.02;;;6.80;99.90;;;;;;4937272;28;95740;-33
2022/11/24 02:01:49;;;;;;;20.55;7.80;;;6.80;99.90;;;;;;4938182;28;94183;-33
2022/11/24 02:04:18;;;;;;;19.42;8.50;;;6.70;99.90;;;;;;4938341;28;93464;-34
2022/11/24 02:06:46;;;;;;;19.10;8.15;;;6.70;99.90;;;;;;4937837;28;93317;-33
2022/11/24 02:09:27;;;;;;;16.42;8.85;;;6.70;99.90;;;;;;4938059;28;95724;-34
2022/11/24 02:11:53;;;;;;;22.23;8.48;;;6.70;99.90;;;;;;4937902;28;95827;-33
2022/11/24 02:14:21;;;;;;;36.05;10.10;;;6.70;99.90;;;;;;4938495;28;95171;-32
2022/11/24 02:16:51;;;;;;;20.05;8.05;;;6.70;99.90;;;;;;4937405;28;92956;-35
2022/11/24 02:19:42;;;;;;;16.92;8.15;;;6.70;99.90;;;;;;4938257;28;95032;-34
2022/11/24 02:22:13;;;;;;;25.98;8.38;;;6.70;99.90;;;;;;4937254;28;94550;-33
2022/11/24 02:25:01;;;;;;;20.02;8.20;;;6.70;99.90;;;;;;4938329;28;93926;-34
2022/11/24 02:27:27;;;;;;;21.58;9.95;;;6.70;99.90;;;;;;4938511;28;93973;-33
2022/11/24 02:29:53;;;;;;;27.52;9.82;;;6.70;99.90;;;;;;4938036;28;94569;-33
2022/11/24 02:32:20;;;;;;;27.42;9.27;;;6.70;99.90;;;;;;4937932;28;94622;-34
2022/11/24 02:34:45;;;;;;;22.13;8.93;;;6.70;99.90;;;;;;4937946;28;95890;-34
2022/11/24 02:37:11;;;;;;;20.15;8.40;;;6.70;99.90;;;;;;4937111;28;93449;-34
2022/11/24 02:39:37;;;;;;;16.88;7.50;;;6.70;99.90;;;;;;4937331;28;94800;-34
2022/11/24 02:42:08;;;;;;;14.85;8.32;;;6.70;99.90;;;;;;4938265;28;95211;-33
2022/11/24 02:44:39;;;;;;;20.45;9.15;;;6.70;99.90;;;;;;4938087;28;92898;-33
2022/11/24 02:47:10;;;;;;;23.17;8.57;;;6.70;99.90;;;;;;4937530;28;93315;-35
2022/11/24 02:49:36;;;;;;;14.25;7.45;;;6.70;99.90;;;;;;4937387;28;94868;-36
2022/11/24 02:52:03;;;;;;;28.85;8.90;;;6.70;99.90;;;;;;4938259;28;94221;-37
2022/11/24 02:54:29;;;;;;;29.27;9.20;;;6.80;99.90;;;;;;4938208;28;92101;-33
2022/11/24 02:56:55;;;;;;;22.50;8.57;;;6.80;99.90;;;;;;4938212;28;94481;-36
2022/11/24 02:59:20;;;;;;;14.15;6.93;;;6.80;99.90;;;;;;4937056;28;96357;-32
2022/11/24 03:01:46;;;;;;;20.40;7.75;;;6.80;99.90;;;;;;4936832;28;95619;-32
2022/11/24 03:04:12;;;;;;;19.88;7.15;;;6.80;99.90;;;;;;4938117;28;93285;-33
2022/11/24 03:06:38;;;;;;;13.48;6.60;;;6.80;99.90;;;;;;4937277;28;92986;-34
2022/11/24 03:09:04;;;;;;;18.05;7.22;;;6.80;99.90;;;;;;4936821;28;94533;-35
2022/11/24 03:11:30;;;;;;;20.88;8.65;;;6.80;99.90;;;;;;4937355;28;95292;-33
2022/11/24 03:13:56;;;;;;;21.65;7.45;;;6.70;99.90;;;;;;4937409;28;93166;-35
2022/11/24 03:16:21;;;;;;;19.83;7.05;;;6.70;99.90;;;;;;4937282;28;93746;-34
2022/11/24 03:18:50;;;;;;;30.40;8.10;;;6.70;99.90;;;;;;4936787;28;95242;-33
2022/11/24 03:21:15;;;;;;;30.77;9.27;;;6.70;99.90;;;;;;4936872;28;94813;-32
2022/11/24 03:23:41;;;;;;;28.35;8.10;;;6.80;99.90;;;;;;4937159;28;93882;-32
2022/11/24 03:26:15;;;;;;;22.08;7.07;;;6.80;99.90;;;;;;4937006;28;93479;-34
2022/11/24 03:28:41;;;;;;;14.90;6.50;;;6.80;99.90;;;;;;4937629;28;94923;-33
2022/11/24 03:31:07;;;;;;;25.33;8.18;;;6.80;99.90;;;;;;4936558;28;95588;-32
2022/11/24 03:33:34;;;;;;;14.30;6.45;;;6.80;99.90;;;;;;4936877;28;92338;-34
2022/11/24 03:35:59;;;;;;;19.67;6.63;;;6.90;99.90;;;;;;4937746;28;94014;-34
2022/11/24 03:38:25;;;;;;;16.88;7.15;;;6.80;99.90;;;;;;4936318;28;94709;-33
2022/11/24 03:40:51;;;;;;;26.38;8.00;;;6.90;99.90;;;;;;4937699;28;94648;-32
2022/11/24 03:43:18;;;;;;;18.30;6.15;;;6.90;99.90;;;;;;4937281;28;93113;-34
2022/11/24 03:45:48;;;;;;;24.60;7.60;;;6.90;99.90;;;;;;4936133;28;93994;-33
2022/11/24 03:48:15;;;;;;;14.73;6.10;;;7.00;99.90;;;;;;4935750;28;95214;-32
2022/11/24 03:50:41;;;;;;;26.70;7.40;;;7.00;99.90;;;;;;4936233;28;94500;-33
2022/11/24 03:53:06;;;;;;;13.27;5.60;;;7.00;99.90;;;;;;4937827;28;94064;-32
2022/11/24 03:55:32;;;;;;;15.73;6.78;;;6.90;99.90;;;;;;4936245;28;93314;-32
2022/11/24 03:57:58;;;;;;;21.05;6.05;;;6.90;99.90;;;;;;4937160;28;94555;-33
2022/11/24 04:00:23;;;;;;;14.93;6.75;;;6.90;99.90;;;;;;4936479;28;94642;-36
2022/11/24 04:02:49;;;;;;;12.15;5.72;;;6.90;99.90;;;;;;4937401;28;93645;-31
2022/11/24 04:05:15;;;;;;;23.92;7.22;;;6.80;99.90;;;;;;4937582;28;91326;-32
2022/11/24 04:07:40;;;;;;;21.45;6.57;;;6.80;99.90;;;;;;4936377;28;95233;-35
2022/11/24 04:10:06;;;;;;;19.15;6.45;;;6.80;99.90;;;;;;4937212;28;94134;-32
2022/11/24 04:12:44;;;;;;;14.90;5.55;;;6.80;99.90;;;;;;4935993;28;95665;-32
2022/11/24 04:15:16;;;;;;;16.08;6.30;;;6.80;99.90;;;;;;4935962;28;93434;-33
2022/11/24 04:17:42;;;;;;;24.48;6.65;;;6.80;99.90;;;;;;4936294;28;94675;-31
2022/11/24 04:20:09;;;;;;;26.02;6.80;;;6.80;99.90;;;;;;4936436;28;94943;-33
2022/11/24 04:22:35;;;;;;;17.90;6.70;;;6.70;99.90;;;;;;4936924;28;94341;-32
2022/11/24 04:25:01;;;;;;;15.25;6.05;;;6.80;99.90;;;;;;4936026;28;92188;-34
2022/11/24 04:27:27;;;;;;;13.95;5.95;;;6.80;99.90;;;;;;4936406;28;95013;-34
2022/11/24 04:29:53;;;;;;;19.10;6.40;;;6.80;99.90;;;;;;4940469;28;96177;-34
2022/11/24 04:32:19;;;;;;;15.88;5.57;;;6.80;99.90;;;;;;4939991;28;94171;-32
2022/11/24 04:34:44;;;;;;;12.75;4.60;;;6.80;99.90;;;;;;4939288;28;92158;-34
2022/11/24 04:37:10;;;;;;;14.38;5.43;;;6.80;99.90;;;;;;4938696;28;95618;-33
2022/11/24 04:39:35;;;;;;;16.98;5.45;;;6.80;99.90;;;;;;4939628;28;95061;-32
2022/11/24 04:42:01;;;;;;;10.45;5.07;;;6.80;99.90;;;;;;4939848;28;93775;-34
2022/11/24 04:44:27;;;;;;;13.52;5.85;;;6.80;99.90;;;;;;4939090;28;93045;-33
2022/11/24 04:46:52;;;;;;;17.33;5.80;;;6.80;99.90;;;;;;4939395;28;94759;-33
2022/11/24 04:49:18;;;;;;;17.92;5.65;;;6.80;99.90;;;;;;4939486;28;94428;-33
2022/11/24 04:51:44;;;;;;;17.05;5.90;;;6.80;99.90;;;;;;4939659;28;93826;-34
2022/11/24 04:54:13;;;;;;;16.50;5.72;;;6.80;99.90;;;;;;4939794;28;93404;-31
2022/11/24 04:56:40;;;;;;;14.65;6.05;;;6.80;99.90;;;;;;4938359;28;94432;-33
2022/11/24 04:59:06;;;;;;;25.75;6.60;;;6.80;99.90;;;;;;4938688;28;94513;-34
2022/11/24 05:01:32;;;;;;;19.00;6.20;;;6.70;99.90;;;;;;4939413;28;93118;-33
2022/11/24 05:03:58;;;;;;;9.38;4.95;;;6.70;99.90;;;;;;4938720;28;93549;-32
2022/11/24 05:06:24;;;;;;;17.35;5.75;;;6.60;99.90;;;;;;4925370;28;94876;-33
2022/11/24 05:08:51;;;;;;;14.98;5.75;;;6.60;99.90;;;;;;4939074;28;94017;-33
2022/11/24 05:11:17;;;;;;;19.60;6.03;;;6.60;99.90;;;;;;4939026;28;93976;-32
2022/11/24 05:13:43;;;;;;;12.93;5.40;;;6.60;99.90;;;;;;4938831;28;94872;-33
2022/11/24 05:16:09;;;;;;;27.88;6.20;;;6.60;99.90;;;;;;4937904;28;95306;-33
2022/11/24 05:18:34;;;;;;;14.32;5.63;;;6.60;99.90;;;;;;4938990;28;94412;-32
2022/11/24 05:21:00;;;;;;;19.30;6.25;;;6.60;99.90;;;;;;4939115;28;94398;-33
2022/11/24 05:23:26;;;;;;;19.58;7.03;;;6.60;99.90;;;;;;4938587;28;93081;-32
2022/11/24 05:25:52;;;;;;;19.38;6.05;;;6.60;99.90;;;;;;4938419;28;95361;-34
2022/11/24 05:28:18;;;;;;;20.73;6.75;;;6.70;99.90;;;;;;4938328;28;95709;-32
2022/11/24 05:30:43;;;;;;;19.33;5.15;;;6.70;99.90;;;;;;4938801;28;94545;-35
2022/11/24 05:33:18;;;;;;;15.80;6.25;;;6.60;99.90;;;;;;4939098;28;94563;-31
2022/11/24 05:35:44;;;;;;;14.48;5.80;;;6.70;99.90;;;;;;4938735;28;94609;-32
2022/11/24 05:38:10;;;;;;;30.70;6.07;;;6.70;99.90;;;;;;4938960;28;94803;-34
2022/11/24 05:40:37;;;;;;;20.00;5.90;;;6.70;99.90;;;;;;4937184;28;92955;-32
2022/11/24 05:43:03;;;;;;;15.77;5.57;;;6.70;99.90;;;;;;4939361;28;92663;-33
2022/11/24 05:45:28;;;;;;;16.58;4.72;;;6.70;99.90;;;;;;4938776;28;94773;-33
2022/11/24 05:47:54;;;;;;;15.80;5.95;;;6.70;99.90;;;;;;4938436;28;94527;-33
2022/11/24 05:50:21;;;;;;;23.88;5.47;;;6.60;99.90;;;;;;4938251;28;94165;-34
2022/11/24 05:52:47;;;;;;;17.02;5.72;;;6.60;99.90;;;;;;4938709;28;94882;-33
2022/11/24 05:55:14;;;;;;;19.45;5.88;;;6.60;99.90;;;;;;4938302;28;94738;-32
2022/11/24 05:57:40;;;;;;;17.17;5.63;;;6.60;99.90;;;;;;4938473;28;95508;-33
2022/11/24 06:00:09;;;;;;;19.15;5.63;;;6.60;99.90;;;;;;4938330;28;92679;-33
2022/11/24 06:02:34;;;;;;;18.25;5.95;;;6.70;99.90;;;;;;4937880;28;94421;-31
2022/11/24 06:05:00;;;;;;;20.38;4.80;;;6.70;99.90;;;;;;4938026;28;95032;-32
2022/11/24 06:07:26;;;;;;;25.88;6.85;;;6.60;99.90;;;;;;4938668;28;92690;-34
2022/11/24 06:09:51;;;;;;;23.27;6.20;;;6.70;99.90;;;;;;4938326;28;94278;-35
2022/11/24 06:12:17;;;;;;;21.48;6.55;;;6.70;99.90;;;;;;4938547;28;92682;-31
2022/11/24 06:14:43;;;;;;;11.40;4.55;;;6.70;99.90;;;;;;4936269;28;95556;-32
2022/11/24 06:17:09;;;;;;;13.95;4.63;;;6.80;99.90;;;;;;4938305;28;95196;-33
2022/11/24 06:19:35;;;;;;;18.15;6.53;;;6.80;99.90;;;;;;4938222;28;94681;-32
2022/11/24 06:22:01;;;;;;;18.88;5.95;;;6.70;99.90;;;;;;4938204;28;94082;-34
2022/11/24 06:24:26;;;;;;;25.33;6.95;;;6.80;99.90;;;;;;4938201;28;93970;-32
2022/11/24 06:26:52;;;;;;;20.73;6.50;;;6.70;99.90;;;;;;4937437;28;94260;-33
2022/11/24 06:29:17;;;;;;;14.70;5.25;;;6.70;99.90;;;;;;4938539;28;92859;-32
2022/11/24 06:31:43;;;;;;;15.32;6.32;;;6.70;99.90;;;;;;4937971;28;93638;-34
2022/11/24 06:34:10;;;;;;;18.00;5.72;;;6.70;99.90;;;;;;4937968;28;93684;-35
2022/11/24 06:36:37;;;;;;;18.05;5.88;;;6.70;99.90;;;;;;4937844;28;94760;-33
2022/11/24 06:39:04;;;;;;;15.30;6.45;;;6.60;99.90;;;;;;4937189;28;95591;-32
2022/11/24 06:41:29;;;;;;;21.80;7.15;;;6.60;99.90;;;;;;4937177;28;94619;-36
2022/11/24 06:43:55;;;;;;;17.60;5.32;;;6.60;99.90;;;;;;4938434;28;94992;-32
2022/11/24 06:46:21;;;;;;;16.88;5.78;;;6.60;99.90;;;;;;4937965;28;94444;-32
2022/11/24 06:48:49;;;;;;;24.35;7.15;;;6.60;99.90;;;;;;4937947;28;94365;-35
2022/11/24 06:51:17;;;;;;;;;;;6.60;99.90;;;;;;4938040;28;92768;-35
2022/11/24 06:53:43;;;;;;;13.93;5.40;;;6.60;99.90;;;;;;4938768;28;94781;-34
2022/11/24 06:56:12;;;;;;;18.70;6.20;;;6.50;99.90;;;;;;4937705;28;93790;-33
2022/11/24 06:58:43;;;;;;;25.45;6.07;;;6.50;99.90;;;;;;4937757;28;94752;-33
2022/11/24 07:01:12;;;;;;;12.68;6.30;;;6.50;99.90;;;;;;4937265;28;93496;-32
2022/11/24 07:03:38;;;;;;;19.85;6.78;;;6.60;99.90;;;;;;4936473;28;95715;-32
2022/11/24 07:06:04;;;;;;;22.95;6.38;;;6.60;99.90;;;;;;4937036;28;95646;-35
2022/11/24 07:08:29;;;;;;;19.42;6.10;;;6.60;99.90;;;;;;4937378;28;93070;-33
2022/11/24 07:10:55;;;;;;;24.67;6.40;;;6.60;99.90;;;;;;4937506;28;92841;-33
2022/11/24 07:13:21;;;;;;;24.58;6.70;;;6.60;99.90;;;;;;4937138;28;94524;-33
2022/11/24 07:15:46;;;;;;;14.93;5.32;;;6.70;99.90;;;;;;4936490;28;94505;-31
2022/11/24 07:18:12;;;;;;;21.70;7.35;;;6.70;99.90;;;;;;4937818;28;92284;-34
2022/11/24 07:20:37;;;;;;;11.05;5.20;;;6.70;99.90;;;;;;4937204;28;91799;-33
2022/11/24 07:23:03;;;;;;;30.20;6.30;;;6.70;99.90;;;;;;4937356;28;94926;-32
2022/11/24 07:25:29;;;;;;;17.50;6.28;;;6.70;99.90;;;;;;4936388;28;93770;-32
2022/11/24 07:27:59;;;;;;;12.75;6.55;;;6.70;99.90;;;;;;4937502;28;93017;-32
2022/11/24 07:30:27;;;;;;;23.08;6.63;;;6.80;99.90;;;;;;4937173;28;92338;-35
2022/11/24 07:32:58;;;;;;;21.65;7.00;;;6.80;99.90;;;;;;4936795;28;94394;-34
2022/11/24 07:35:24;;;;;;;13.60;5.78;;;6.80;99.90;;;;;;4936763;28;94689;-33
2022/11/24 07:37:53;;;;;;;17.35;6.55;;;6.90;99.90;;;;;;4937470;28;93760;-32
2022/11/24 07:40:19;;;;;;;22.23;6.63;;;6.90;99.90;;;;;;4937382;28;94428;-32
2022/11/24 07:42:44;;;;;;;14.25;6.07;;;7.00;99.90;;;;;;4936029;28;94686;-34
2022/11/24 07:45:10;;;;;;;27.52;7.85;;;7.10;99.90;;;;;;4937168;28;94238;-33
2022/11/24 07:47:39;;;;;;;32.17;7.75;;;7.10;99.90;;;;;;4936817;28;94071;-32
2022/11/24 07:50:08;;;;;;;14.70;6.85;;;7.10;99.90;;;;;;4936818;28;94166;-32
2022/11/24 07:52:34;;;;;;;14.55;7.05;;;7.20;99.90;;;;;;4936222;28;95577;-33
2022/11/24 07:55:00;;;;;;;16.48;8.05;;;7.20;99.90;;;;;;4936833;28;95555;-34
2022/11/24 07:57:27;;;;;;;24.27;7.25;;;7.30;99.90;;;;;;4936913;28;92588;-33
2022/11/24 07:59:54;;;;;;;10.40;5.70;;;7.30;99.90;;;;;;4936336;28;93728;-33
2022/11/24 08:02:19;;;;;;;12.13;5.88;;;7.30;99.90;;;;;;4936982;28;94524;-33
2022/11/24 08:04:45;;;;;;;19.75;7.13;;;7.40;99.90;;;;;;4939400;28;94566;-35
2022/11/24 08:07:10;;;;;;;16.83;6.13;;;7.30;99.90;;;;;;4940343;28;93621;-32
2022/11/24 08:09:36;;;;;;;26.45;7.32;;;7.40;99.90;;;;;;4939862;28;92024;-33
2022/11/24 08:12:02;;;;;;;22.80;6.35;;;7.40;99.90;;;;;;4941033;28;94446;-35
2022/11/24 08:14:27;;;;;;;16.60;6.60;;;7.50;99.90;;;;;;4939716;28;94705;-32
2022/11/24 08:16:53;;;;;;;16.67;6.40;;;7.40;99.90;;;;;;4938354;28;93111;-35
2022/11/24 08:19:20;;;;;;;16.63;7.35;;;7.50;99.90;;;;;;4940279;28;94354;-32
2022/11/24 08:21:45;;;;;;;21.77;7.07;;;7.50;99.90;;;;;;4930127;28;94613;-32
2022/11/24 08:24:14;;;;;;;25.20;7.60;;;7.50;99.90;;;;;;4920145;28;94387;-31
2022/11/24 08:26:40;;;;;;;17.88;7.85;;;7.60;99.90;;;;;;4920346;28;93393;-34
2022/11/24 08:29:05;;;;;;;21.08;7.70;;;7.50;99.90;;;;;;4920406;28;95521;-32
2022/11/24 08:31:34;;;;;;;20.23;7.00;;;7.60;99.90;;;;;;4919266;28;94638;-35
2022/11/24 08:34:04;;;;;;;23.83;8.20;;;7.60;99.90;;;;;;4921326;28;93528;-33
2022/11/24 08:36:30;;;;;;;24.60;8.48;;;7.70;99.90;;;;;;4917910;28;93568;-34
2022/11/24 08:38:57;;;;;;;20.17;6.50;;;7.70;99.90;;;;;;4919603;28;92128;-32
2022/11/24 08:41:24;;;;;;;13.20;7.67;;;7.80;99.90;;;;;;4915909;28;95717;-35
2022/11/24 08:43:50;;;;;;;13.77;6.93;;;7.90;99.90;;;;;;4921474;28;95423;-32
2022/11/24 08:46:17;;;;;;;12.63;7.45;;;7.90;99.90;;;;;;4939931;28;93826;-34
2022/11/24 08:48:51;;;;;;;15.38;6.45;;;7.90;99.90;;;;;;4938823;28;92713;-33
2022/11/24 08:51:22;;;;;;;16.63;6.22;;;8.10;99.90;;;;;;4926355;28;95011;-32
2022/11/24 08:53:48;;;;;;;17.17;7.00;;;8.20;99.90;;;;;;4933703;28;94413;-35
2022/11/24 08:56:14;;;;;;;13.18;6.72;;;8.20;99.90;;;;;;4927914;28;93191;-33
2022/11/24 08:58:40;;;;;;;15.20;5.68;;;8.40;99.90;;;;;;4937347;28;93457;-33
2022/11/24 09:01:14;;;;;;;19.45;7.40;;;8.50;99.90;;;;;;4930955;28;94603;-32
2022/11/24 09:03:40;;;;;;;15.75;5.95;;;8.50;99.90;;;;;;4918759;28;95453;-34
2022/11/24 09:06:07;;;;;;;12.63;5.32;;;8.60;99.90;;;;;;4919288;28;95838;-32
2022/11/24 09:08:34;;;;;;;12.45;5.70;;;8.60;99.90;;;;;;4919680;28;92239;-34
2022/11/24 09:11:05;;;;;;;17.98;5.07;;;8.60;99.90;;;;;;4916486;28;94650;-34
2022/11/24 09:13:31;;;;;;;13.90;4.95;;;8.70;99.90;;;;;;4918215;28;94595;-34
2022/11/24 09:16:06;;;;;;;8.90;5.68;;;8.80;99.90;;;;;;4971461;23;94455;-31
2022/11/24 09:18:32;;;;;;;13.68;5.32;;;8.90;99.90;;;;;;4954418;28;93533;-31
2022/11/24 09:21:13;;;;;;;13.93;5.60;;;8.80;99.90;;;;;;4956131;28;95164;-31
2022/11/24 09:23:39;;;;;;;11.57;6.05;;;8.80;99.90;;;;;;4955938;28;94386;-31
2022/11/24 09:26:09;;;;;;;14.95;5.47;;;8.80;99.90;;;;;;4954302;28;93336;-31
2022/11/24 09:28:34;;;;;;;14.98;4.60;;;8.80;99.90;;;;;;4955741;28;92930;-31
2022/11/24 09:31:05;;;;;;;8.80;4.80;;;8.80;99.90;;;;;;4955902;28;95737;-33
2022/11/24 09:33:32;;;;;;;10.95;5.85;;;8.70;99.90;;;;;;4954958;28;96039;-32
2022/11/24 09:35:58;;;;;;;12.70;4.55;;;8.80;99.90;;;;;;4955359;28;92401;-32
2022/11/24 09:38:24;;;;;;;12.55;5.10;;;8.80;99.90;;;;;;4953815;28;95072;-34
2022/11/24 09:40:51;;;;;;;9.63;5.70;;;8.80;99.90;;;;;;4956802;28;94618;-34
2022/11/24 09:43:34;;;;;;;13.10;5.32;;;8.80;99.90;;;;;;4958047;28;93915;-32
2022/11/24 09:46:10;;;;;;;11.32;5.32;;;8.80;99.90;;;;;;4942712;28;93948;-33
2022/11/24 09:48:40;;;;;;;7.43;4.30;;;8.90;99.90;;;;;;4956305;28;93649;-33
2022/11/24 09:51:11;;;;;;;11.45;5.13;;;8.90;99.90;;;;;;4956215;28;94163;-32
2022/11/24 09:53:45;;;;;;;6.75;3.80;;;8.90;99.90;;;;;;4955152;28;94160;-35
2022/11/24 09:56:21;;;;;;;6.25;4.35;;;9.00;99.90;;;;;;4953557;28;94376;-32
2022/11/24 09:59:01;;;;;;;6.70;3.90;;;9.00;99.90;;;;;;4955678;28;93206;-31
2022/11/24 10:01:33;;;;;;;5.20;3.65;;;9.00;99.90;;;;;;4945513;28;94778;-32
2022/11/24 10:04:00;;;;;;;5.80;3.92;;;9.10;99.90;;;;;;4955917;28;94357;-33
2022/11/24 10:06:30;;;;;;;7.70;3.63;;;9.10;99.90;;;;;;4955519;28;94216;-33
2022/11/24 10:09:06;;;;;;;7.60;3.67;;;9.10;99.90;;;;;;4954172;28;93377;-32
2022/11/24 10:11:57;;;;;;;6.72;3.88;;;9.10;99.90;;;;;;4951249;28;94450;-34
2022/11/24 10:14:41;;;;;;;5.38;4.25;;;9.20;99.90;;;;;;4953428;28;94153;-35
2022/11/24 10:17:35;;;;;;;7.65;4.32;;;9.20;99.90;;;;;;4956114;28;93799;-37
2022/11/24 10:20:22;;;;;;;7.75;4.20;;;9.20;99.90;;;;;;4952705;28;92696;-34
2022/11/24 10:23:08;;;;;;;7.75;4.32;;;9.20;99.90;;;;;;4956168;28;95813;-36
2022/11/24 10:25:57;;;;;;;7.28;3.95;;;9.30;99.90;;;;;;4956037;28;95106;-34
2022/11/24 10:28:31;;;;;;;6.43;4.30;;;9.30;99.90;;;;;;4956339;28;92918;-34
2022/11/24 10:31:34;;;;;;;6.35;4.03;;;9.30;99.90;;;;;;4956933;28;92934;-36
2022/11/24 10:34:31;;;;;;;10.65;4.78;;;9.30;99.90;;;;;;4955010;28;94916;-35
2022/11/24 10:37:15;;;;;;;7.90;4.20;;;9.20;99.90;;;;;;4951670;28;95167;-36
2022/11/24 10:39:49;;;;;;;7.45;5.57;;;9.20;99.90;;;;;;4956731;28;93130;-35
2022/11/24 10:42:28;;;;;;;5.15;4.05;;;9.20;99.90;;;;;;4957276;28;92430;-35
2022/11/24 10:45:00;;;;;;;9.25;4.22;;;9.30;99.90;;;;;;4953475;28;95111;-37
2022/11/24 10:47:26;;;;;;;8.35;4.70;;;9.40;99.90;;;;;;4956355;28;94131;-34
2022/11/24 10:50:23;;;;;;;7.50;4.63;;;9.50;99.90;;;;;;4957172;28;94391;-34
2022/11/24 10:53:19;;;;;;;12.27;5.43;;;9.60;99.90;;;;;;4957936;28;93622;-33
2022/11/24 10:55:56;;;;;;;6.28;4.72;;;9.60;99.90;;;;;;4956609;28;95364;-35
2022/11/24 10:58:28;;;;;;;10.32;5.57;;;9.60;99.90;;;;;;4957297;28;94350;-34
2022/11/24 11:00:57;;;;;;;6.45;4.85;;;9.70;99.90;;;;;;4957376;28;92552;-34
2022/11/24 11:03:43;;;;;;;7.82;5.95;;;9.70;99.90;;;;;;4957238;28;92097;-35
2022/11/24 11:06:12;;;;;;;11.40;5.70;;;9.70;99.90;;;;;;4956589;28;94805;-36
2022/11/24 11:08:38;;;;;;;5.72;4.72;;;9.60;99.90;;;;;;4956960;28;95469;-36
2022/11/24 11:11:26;;;;;;;6.18;4.65;;;9.60;99.90;;;;;;4957811;28;94988;-35
2022/11/24 11:14:11;;;;;;;8.80;6.28;;;9.60;99.90;;;;;;4957466;28;93613;-34
2022/11/24 11:16:54;;;;;;;9.00;5.65;;;9.50;99.90;;;;;;4955746;28;95785;-36
2022/11/24 11:19:38;;;;;;;12.43;5.03;;;9.60;99.90;;;;;;4956632;28;95101;-37
2022/11/24 11:22:10;;;;;;;10.75;5.68;;;9.70;99.90;;;;;;4957581;28;93293;-34
2022/11/24 11:24:36;;;;;;;10.93;6.40;;;9.80;99.90;;;;;;4956919;28;93413;-34
2022/11/24 11:27:26;;;;;;;5.93;4.80;;;10.00;99.90;;;;;;4956021;28;94911;-34
2022/11/24 11:29:52;;;;;;;11.07;5.97;;;10.30;99.90;;;;;;4956379;28;94913;-36
2022/11/24 11:32:19;;;;;;;9.70;5.97;;;10.50;99.90;;;;;;4956805;28;93869;-36
2022/11/24 11:34:45;;;;;;;9.80;6.13;;;10.60;99.90;;;;;;4957129;28;93541;-36
2022/11/24 11:37:13;;;;;;;10.82;6.65;;;10.70;99.90;;;;;;4957338;28;95390;-34
2022/11/24 11:39:50;;;;;;;14.57;7.20;;;10.80;99.90;;;;;;4959496;28;94542;-33
2022/11/24 11:42:37;;;;;;;9.73;6.78;;;10.80;99.90;;;;;;4959979;28;93088;-37
2022/11/24 11:45:26;;;;;;;6.70;6.03;;;10.90;99.90;;;;;;4960315;28;93469;-35
2022/11/24 11:48:01;;;;;;;6.90;6.13;;;11.00;99.90;;;;;;4960279;28;96604;-34
2022/11/24 11:50:57;;;;;;;8.75;6.70;;;10.90;99.90;;;;;;4959864;28;94452;-34
2022/11/24 11:53:33;;;;;;;11.05;6.90;;;10.90;99.90;;;;;;4955586;28;92930;-34
2022/11/24 11:56:20;;;;;;;11.40;7.00;;;10.90;99.90;;;;;;4959341;28;92753;-35
2022/11/24 11:59:22;;;;;;;14.18;7.28;;;11.00;99.90;;;;;;4959959;28;94647;-37
2022/11/24 12:02:09;;;;;;;17.70;7.65;;;11.10;99.90;;;;;;4960050;28;96591;-33
2022/11/24 12:04:49;;;;;;;10.93;6.18;;;11.10;99.90;;;;;;4959378;28;93523;-34
2022/11/24 12:07:44;;;;;;;10.57;5.25;;;11.20;99.90;;;;;;4959452;28;92777;-37
2022/11/24 12:10:40;;;;;;;11.80;7.00;;;11.20;99.90;;;;;;4959109;28;96553;-32
2022/11/24 12:13:36;;;;;;;12.57;6.53;;;11.20;99.90;;;;;;4959507;28;97293;-33
2022/11/24 12:16:07;;;;;;;8.27;6.38;;;11.30;99.90;;;;;;4964209;28;92913;-33
2022/11/24 12:18:38;;;;;;;9.95;6.88;;;11.30;99.90;;;;;;4959400;28;93086;-34
2022/11/24 12:21:32;;;;;;;14.43;7.15;;;11.20;99.90;;;;;;4959288;28;94883;-33
2022/11/24 12:24:10;;;;;;;16.55;6.93;;;11.20;99.90;;;;;;4960053;28;94192;-42
2022/11/24 12:26:57;;;;;;;9.88;5.38;;;11.30;99.90;;;;;;4959823;28;94244;-34
2022/11/24 12:30:01;;;;;;;8.52;6.00;;;11.30;99.90;;;;;;4974923;28;92713;-35
2022/11/24 12:32:29;;;;;;;11.50;6.45;;;11.30;99.90;;;;;;4940486;28;94857;-36
2022/11/24 12:35:07;;;;;;;8.25;5.28;;;11.30;99.90;;;;;;4959411;28;93224;-36
2022/11/24 12:37:53;;;;;;;6.22;5.25;;;11.20;99.90;;;;;;4957749;28;94606;-34
2022/11/24 12:40:46;;;;;;;8.43;5.15;;;11.20;99.90;;;;;;4959301;28;92179;-33
2022/11/24 12:43:31;;;;;;;10.10;7.00;;;11.10;99.90;;;;;;4958811;28;95055;-32
2022/11/24 12:46:24;;;;;;;12.10;8.02;;;11.10;99.90;;;;;;4959061;28;94671;-35
2022/11/24 12:49:02;;;;;;;15.10;7.25;;;11.10;99.90;;;;;;4958360;28;93173;-33
2022/11/24 12:51:32;;;;;;;14.52;8.02;;;11.00;99.90;;;;;;4959007;28;94791;-35
2022/11/24 12:54:02;;;;;;;9.43;6.47;;;11.00;99.90;;;;;;4958483;28;94326;-35
2022/11/24 12:56:46;;;;;;;9.32;6.82;;;11.00;99.90;;;;;;4958669;28;94500;-33
2022/11/24 12:59:38;;;;;;;9.43;6.47;;;10.90;99.90;;;;;;4959921;28;93519;-34
2022/11/24 13:02:22;;;;;;;18.40;7.20;;;10.90;99.90;;;;;;4959064;28;94617;-35
2022/11/24 13:05:03;;;;;;;8.45;6.43;;;10.80;99.90;;;;;;4958394;28;96118;-33